Time;durP1;ratioP1;P1;durP2;ratioP2;P2;SDS_P1;SDS_P2;PMS_P1;PMS_P2;Temp;Humidity;BMP_temperature;BMP_pressure;BME280_temperature;BME280_humidity;BME280_pressure;Samples;Min_cycle;Max_cycle;Signal;HPM_P1;HPM_P2
2022/08/21 00:01:05;;;;;;;;;6.00;5.00;;;;;21.36;48.89;101286.00;5035178;28;45356;-63
2022/08/21 00:03:31;;;;;;;;;6.67;5.00;;;;;21.35;48.69;101283.50;5035968;28;45470;-64
2022/08/21 00:05:56;;;;;;;;;7.00;5.33;;;;;21.35;48.86;101273.53;5034599;28;45359;-63
2022/08/21 00:08:22;;;;;;;;;5.00;5.00;;;;;20.87;48.52;101194.25;5035420;28;45380;-63
2022/08/21 00:10:48;;;;;;;;;6.67;5.67;;;;;21.43;49.12;101284.19;5033178;28;45742;-63
2022/08/21 00:13:14;;;;;;;;;5.00;5.00;;;;;21.37;48.97;101271.44;5034138;28;45534;-65
2022/08/21 00:15:41;;;;;;;;;4.33;4.33;;;;;20.98;48.96;101209.06;5034878;28;45475;-63
2022/08/21 00:18:10;;;;;;;;;6.00;6.00;;;;;21.23;49.28;101253.50;5034338;28;45377;-62
2022/08/21 00:20:37;;;;;;;;;9.00;5.00;;;;;21.31;49.46;101274.97;5032753;28;46573;-62
2022/08/21 00:23:03;;;;;;;;;10.00;7.00;;;;;21.07;49.58;101237.59;5033295;28;45558;-63
2022/08/21 00:25:29;;;;;;;;;7.00;7.00;;;;;21.29;49.29;101266.22;5033463;28;45418;-63
2022/08/21 00:27:56;;;;;;;;;7.33;5.33;;;;;21.27;49.81;101270.19;5033422;28;45484;-63
2022/08/21 00:30:23;;;;;;;;;7.33;5.33;;;;;21.18;49.93;101255.94;5033270;28;46115;-63
2022/08/21 00:32:49;;;;;;;;;5.00;4.33;;;;;21.20;50.11;101272.78;5047882;28;45436;-62
2022/08/21 00:35:17;;;;;;;;;5.00;3.67;;;;;21.04;50.15;101249.66;5037747;28;45399;-62
2022/08/21 00:37:42;;;;;;;;;6.00;5.00;;;;;21.07;50.47;101243.84;5039225;28;45384;-63
2022/08/21 00:40:12;;;;;;;;;6.67;4.00;;;;;21.12;50.21;101267.56;5038987;28;45676;-63
2022/08/21 00:42:38;;;;;;;;;4.00;4.00;;;;;21.09;50.63;101257.16;5053808;28;46423;-66
2022/08/21 00:45:05;;;;;;;;;5.33;3.33;;;;;21.06;50.47;101258.41;5039284;28;45498;-61
2022/08/21 00:47:30;;;;;;;;;2.00;2.00;;;;;21.04;50.76;101262.34;5039389;28;45434;-61
2022/08/21 00:49:56;;;;;;;;;3.00;2.00;;;;;20.86;51.22;101255.59;5038728;28;46837;-60
2022/08/21 00:52:26;;;;;;;;;6.67;3.00;;;;;20.89;51.13;101263.28;5037362;28;45223;-63
2022/08/21 00:54:53;;;;;;;;;6.33;4.33;;;;;20.79;51.29;101246.59;5038943;28;45316;-62
2022/08/21 00:57:23;;;;;;;;;5.00;3.00;;;;;20.72;51.38;101234.91;5038875;28;45501;-63
2022/08/21 00:59:52;;;;;;;;;5.00;3.67;;;;;20.87;51.07;101265.38;5038624;28;45641;-63
2022/08/21 01:02:19;;;;;;;;;6.33;3.00;;;;;20.82;51.36;101257.03;5038894;28;45375;-63
2022/08/21 01:04:45;;;;;;;;;3.00;3.00;;;;;20.72;51.13;101234.91;5039112;28;45455;-63
2022/08/21 01:07:10;;;;;;;;;3.00;3.00;;;;;20.87;51.06;101264.53;5038978;28;45220;-62
2022/08/21 01:09:36;;;;;;;;;5.33;4.33;;;;;20.85;51.14;101258.50;5038480;28;47667;-63
2022/08/21 01:12:03;;;;;;;;;3.00;3.00;;;;;20.79;51.42;101254.69;5036577;28;45338;-63
2022/08/21 01:14:29;;;;;;;;;2.00;2.00;;;;;20.79;51.45;101251.16;5038413;28;45289;-63
2022/08/21 01:16:57;;;;;;;;;3.00;3.00;;;;;20.76;51.34;101265.06;5038723;28;45324;-62
2022/08/21 01:19:24;;;;;;;;;5.67;4.00;;;;;20.76;51.52;101260.50;5038357;28;46737;-63
2022/08/21 01:21:50;;;;;;;;;4.00;3.00;;;;;20.62;51.78;101237.13;5038373;28;45424;-64
2022/08/21 01:24:15;;;;;;;;;3.67;3.00;;;;;20.70;51.56;101253.19;5038448;28;45351;-62
2022/08/21 01:26:42;;;;;;;;;3.33;2.33;;;;;20.71;51.48;101262.97;5038600;28;45516;-62
2022/08/21 01:29:22;;;;;;;;;3.00;3.00;;;;;20.63;52.13;101263.13;5038423;28;45902;-62
2022/08/21 01:31:48;;;;;;;;;4.00;4.00;;;;;20.65;51.83;101264.59;5038203;28;45731;-62
2022/08/21 01:34:15;;;;;;;;;4.67;4.67;;;;;20.68;51.93;101270.63;5038547;28;45162;-63
2022/08/21 01:36:41;;;;;;;;;3.67;3.67;;;;;20.51;51.77;101243.91;5038493;28;45498;-62
2022/08/21 01:39:07;;;;;;;;;3.33;2.00;;;;;20.71;51.68;101270.25;5053250;28;47436;-62
2022/08/21 01:41:32;;;;;;;;;3.67;3.00;;;;;20.70;51.57;101274.81;5038035;28;45258;-63
2022/08/21 01:43:58;;;;;;;;;5.67;4.67;;;;;20.67;51.76;101259.00;5038335;28;45465;-63
2022/08/21 01:46:23;;;;;;;;;1.00;1.00;;;;;20.79;51.77;101279.00;5036416;28;45557;-63
2022/08/21 01:48:48;;;;;;;;;5.67;2.67;;;;;20.61;51.70;101254.38;5037685;28;46407;-63
2022/08/21 01:51:14;;;;;;;;;3.67;2.67;;;;;20.74;51.71;101265.28;5037956;28;45481;-62
2022/08/21 01:53:39;;;;;;;;;5.00;2.33;;;;;20.73;51.77;101277.13;5037625;28;49748;-62
2022/08/21 01:56:10;;;;;;;;;3.00;3.00;;;;;20.71;51.84;101260.25;5038436;28;45397;-62
2022/08/21 01:58:36;;;;;;;;;2.67;2.67;;;;;20.72;51.64;101267.34;5037773;28;46911;-62
2022/08/21 02:01:03;;;;;;;;;3.00;2.00;;;;;20.30;52.08;101198.88;5037580;28;45458;-62
2022/08/21 02:03:29;;;;;;;;;6.33;4.33;;;;;20.62;51.71;101256.03;5037945;28;45316;-62
2022/08/21 02:05:54;;;;;;;;;1.67;1.67;;;;;20.66;52.19;101262.72;5053714;28;45555;-62
2022/08/21 02:08:22;;;;;;;;;4.33;3.00;;;;;20.62;52.58;101261.44;5037491;28;46561;-62
2022/08/21 02:10:48;;;;;;;;;2.00;2.00;;;;;20.62;52.52;101269.53;5037906;28;45297;-63
2022/08/21 02:13:13;;;;;;;;;6.00;4.00;;;;;20.52;52.69;101263.66;5037638;28;45340;-62
2022/08/21 02:15:38;;;;;;;;;3.00;2.00;;;;;20.50;52.69;101253.06;5036262;28;45311;-62
2022/08/21 02:18:06;;;;;;;;;5.33;4.00;;;;;20.50;52.63;101261.16;5036025;28;48241;-62
2022/08/21 02:20:39;;;;;;;;;5.00;4.67;;;;;20.41;52.92;101234.47;5037354;28;45483;-62
2022/08/21 02:23:07;;;;;;;;;2.00;2.00;;;;;20.41;52.57;101237.19;5037712;28;45423;-62
2022/08/21 02:25:32;;;;;;;;;3.00;2.00;;;;;20.29;52.57;101218.78;5037674;28;45206;-65
2022/08/21 02:28:02;;;;;;;;;3.00;2.67;;;;;20.48;52.86;101251.59;5037330;28;46019;-63
2022/08/21 02:30:32;;;;;;;;;3.67;3.67;;;;;20.43;52.88;101245.94;5037121;28;45765;-63
2022/08/21 02:32:59;;;;;;;;;4.00;4.00;;;;;20.44;52.73;101236.81;5035939;28;46245;-62
2022/08/21 02:35:24;;;;;;;;;2.33;2.00;;;;;20.43;52.69;101240.53;5037150;28;45489;-63
2022/08/21 02:37:53;;;;;;;;;4.00;2.67;;;;;20.43;52.84;101246.78;5037106;28;46601;-63
2022/08/21 02:40:21;;;;;;;;;1.33;1.33;;;;;20.45;52.64;101250.13;5037319;28;45426;-63
2022/08/21 02:42:47;;;;;;;;;3.00;3.00;;;;;20.44;52.79;101253.00;5037446;28;45513;-62
2022/08/21 02:45:13;;;;;;;;;3.00;3.00;;;;;20.39;52.63;101252.72;5037316;28;45591;-63
2022/08/21 02:47:39;;;;;;;;;2.00;2.00;;;;;19.81;52.97;101157.53;5036945;28;47402;-62
2022/08/21 02:50:06;;;;;;;;;2.33;2.33;;;;;20.24;53.36;101242.84;5036827;28;45300;-62
2022/08/21 02:52:32;;;;;;;;;2.00;2.00;;;;;20.24;53.31;101248.25;5037215;28;45312;-61
2022/08/21 02:54:57;;;;;;;;;2.67;2.67;;;;;19.63;53.40;101175.06;5036916;28;45483;-62
2022/08/21 02:57:22;;;;;;;;;5.00;3.67;;;;;20.07;54.04;101252.25;5035281;28;59001;-62
2022/08/21 02:59:48;;;;;;;;;3.33;2.67;;;;;20.04;53.76;101258.03;5036890;28;45304;-64
2022/08/21 03:02:13;;;;;;;;;4.00;4.00;;;;;20.03;53.95;101268.00;5036953;28;45391;-63
2022/08/21 03:04:39;;;;;;;;;3.00;3.00;;;;;20.01;53.91;101255.72;5037141;28;45209;-63
2022/08/21 03:07:04;;;;;;;;;6.67;4.00;;;;;19.87;53.94;101225.09;5036828;28;46746;-63
2022/08/21 03:09:29;;;;;;;;;3.33;3.00;;;;;20.05;53.82;101259.72;5036664;28;45239;-63
2022/08/21 03:11:55;;;;;;;;;1.33;1.00;;;;;20.01;54.06;101250.31;5036745;28;45183;-62
2022/08/21 03:14:20;;;;;;;;;4.00;3.00;;;;;20.00;54.25;101256.75;5037042;28;45451;-62
2022/08/21 03:16:45;;;;;;;;;4.00;3.00;;;;;19.80;54.72;101231.41;5036511;28;46809;-62
2022/08/21 03:19:11;;;;;;;;;3.00;3.00;;;;;19.59;54.65;101207.97;5036691;28;45458;-62
2022/08/21 03:21:36;;;;;;;;;4.00;3.00;;;;;19.88;54.72;101255.59;5036814;28;45340;-62
2022/08/21 03:24:02;;;;;;;;;2.67;2.67;;;;;19.82;54.37;101226.66;5037240;28;45188;-63
2022/08/21 03:26:28;;;;;;;;;3.00;3.00;;;;;19.99;54.40;101255.91;5036526;28;47543;-63
2022/08/21 03:28:53;;;;;;;;;4.00;4.00;;;;;20.04;54.24;101252.66;5036599;28;45245;-63
2022/08/21 03:31:18;;;;;;;;;3.00;2.00;;;;;19.95;54.29;101238.44;5036706;28;45462;-63
2022/08/21 03:33:44;;;;;;;;;5.33;4.00;;;;;19.76;54.78;101214.78;5036894;28;45411;-63
2022/08/21 03:36:10;;;;;;;;;4.33;4.33;;;;;19.86;54.68;101228.81;5036269;28;46375;-62
2022/08/21 03:38:37;;;;;;;;;4.00;3.00;;;;;19.96;54.38;101234.69;5036178;28;45482;-62
2022/08/21 03:41:03;;;;;;;;;3.33;3.00;;;;;20.04;54.14;101233.75;5035142;28;45370;-63
2022/08/21 03:43:29;;;;;;;;;3.00;3.00;;;;;19.97;54.13;101217.47;5036421;28;45507;-63
2022/08/21 03:45:55;;;;;;;;;4.67;3.00;;;;;20.02;54.40;101206.09;5036098;28;45421;-63
2022/08/21 03:48:20;;;;;;;;;3.00;3.00;;;;;20.09;53.89;101215.09;5036134;28;45204;-64
2022/08/21 03:50:47;;;;;;;;;5.33;3.00;;;;;20.09;54.28;101211.56;5036600;28;45493;-63
2022/08/21 03:53:13;;;;;;;;;3.00;3.00;;;;;20.04;54.47;101209.47;5036686;28;45322;-62
2022/08/21 03:55:39;;;;;;;;;4.33;3.00;;;;;19.96;54.43;101196.09;5035954;28;47308;-62
2022/08/21 03:58:05;;;;;;;;;4.00;2.67;;;;;19.97;54.85;101213.94;5036159;28;45324;-62
2022/08/21 04:00:31;;;;;;;;;4.67;3.00;;;;;19.93;54.89;101215.38;5036309;28;45710;-62
2022/08/21 04:02:57;;;;;;;;;4.00;3.00;;;;;19.45;55.04;101134.19;5036367;28;45547;-63
2022/08/21 04:05:29;;;;;;;;;3.00;3.00;;;;;19.69;54.93;101179.66;5036214;28;45672;-63
2022/08/21 04:08:01;;;;;;;;;6.33;2.00;;;;;19.72;55.51;101192.75;5036560;28;45398;-63
2022/08/21 04:10:29;;;;;;;;;5.67;4.00;;;;;19.67;55.45;101184.44;5039582;28;45158;-63
2022/08/21 04:12:55;;;;;;;;;5.00;5.00;;;;;19.75;55.63;101200.47;5039868;28;45434;-63
2022/08/21 04:15:22;;;;;;;;;4.00;4.00;;;;;19.60;55.56;101174.56;5039536;28;47436;-61
2022/08/21 04:17:48;;;;;;;;;4.67;4.67;;;;;19.78;55.76;101201.09;5039384;28;45253;-62
2022/08/21 04:20:15;;;;;;;;;7.00;4.67;;;;;19.70;55.37;101186.72;5039911;28;45394;-62
2022/08/21 04:22:40;;;;;;;;;5.33;4.00;;;;;19.85;55.38;101215.50;5039953;28;45200;-62
2022/08/21 04:25:07;;;;;;;;;7.00;4.67;;;;;19.88;55.47;101209.72;5039458;28;45415;-62
2022/08/21 04:27:33;;;;;;;;;3.00;3.00;;;;;19.91;55.27;101220.97;5039315;28;45241;-61
2022/08/21 04:29:58;;;;;;;;;6.33;4.00;;;;;19.93;55.50;101226.16;5039173;28;45447;-62
2022/08/21 04:32:24;;;;;;;;;6.00;3.00;;;;;19.93;54.97;101223.47;5039195;28;45485;-62
2022/08/21 04:34:50;;;;;;;;;4.00;3.00;;;;;19.95;55.14;101237.59;5038982;28;46691;-63
2022/08/21 04:37:15;;;;;;;;;6.67;6.00;;;;;19.43;55.98;101147.03;5039367;28;45380;-62
2022/08/21 04:39:42;;;;;;;;;4.33;3.33;;;;;19.84;55.94;101214.69;5039473;28;45247;-62
2022/08/21 04:42:08;;;;;;;;;5.00;4.00;;;;;19.96;55.57;101240.09;5039544;28;45399;-64
2022/08/21 04:44:34;;;;;;;;;8.67;5.33;;;;;19.97;55.79;101235.53;5039006;28;47422;-62
2022/08/21 04:46:59;;;;;;;;;5.00;4.67;;;;;19.96;55.52;101233.88;5038917;28;45415;-62
2022/08/21 04:49:24;;;;;;;;;6.00;5.00;;;;;19.11;56.01;101094.41;5038675;28;45452;-61
2022/08/21 04:51:50;;;;;;;;;3.00;3.00;;;;;20.01;55.37;101244.91;5038673;28;45212;-62
2022/08/21 04:54:21;;;;;;;;;5.33;4.33;;;;;19.99;55.40;101234.31;5038653;28;46038;-62
2022/08/21 04:56:55;;;;;;;;;4.00;4.00;;;;;20.00;54.56;101251.34;5038763;28;45505;-62
2022/08/21 04:59:27;;;;;;;;;4.67;3.00;;;;;19.92;54.62;101240.69;5038709;28;45276;-63
2022/08/21 05:01:56;;;;;;;;;3.67;3.00;;;;;19.74;54.72;101220.38;5038956;28;45151;-63
2022/08/21 05:04:26;;;;;;;;;3.00;2.00;;;;;19.75;54.82;101227.44;5038552;28;46092;-63
2022/08/21 05:06:57;;;;;;;;;4.00;4.00;;;;;19.88;54.42;101252.91;5038507;28;45205;-62
2022/08/21 05:09:24;;;;;;;;;3.00;2.00;;;;;19.80;54.95;101248.44;5038740;28;45503;-63
2022/08/21 05:11:51;;;;;;;;;3.00;2.00;;;;;19.79;54.77;101254.03;5037200;28;45392;-62
2022/08/21 05:14:17;;;;;;;;;4.33;2.67;;;;;19.32;54.83;101180.69;5038204;28;45832;-63
2022/08/21 05:16:43;;;;;;;;;4.00;4.00;;;;;19.74;54.87;101255.47;5038114;28;45383;-63
2022/08/21 05:19:09;;;;;;;;;3.67;3.67;;;;;19.66;55.00;101231.31;5038016;28;45268;-63
2022/08/21 05:21:37;;;;;;;;;5.00;3.33;;;;;19.77;54.87;101234.50;5037704;28;45361;-63
2022/08/21 05:24:03;;;;;;;;;6.00;4.00;;;;;19.04;54.80;101118.63;5038074;28;45711;-63
2022/08/21 05:26:29;;;;;;;;;4.00;4.00;;;;;19.54;55.13;101207.72;5038448;28;45332;-63
2022/08/21 05:28:55;;;;;;;;;5.67;3.00;;;;;19.73;55.18;101234.91;5038372;28;45272;-63
2022/08/21 05:31:20;;;;;;;;;4.67;4.67;;;;;19.70;55.36;101251.47;5038169;28;45407;-64
2022/08/21 05:33:45;;;;;;;;;5.33;3.33;;;;;19.73;55.18;101256.47;5038277;28;45455;-63
2022/08/21 05:36:11;;;;;;;;;4.00;4.00;;;;;19.13;55.20;101144.41;5038018;28;45427;-63
2022/08/21 05:38:36;;;;;;;;;4.67;3.67;;;;;19.78;55.16;101255.06;5037931;28;45411;-64
2022/08/21 05:41:02;;;;;;;;;4.00;4.00;;;;;19.30;55.00;101158.50;5038566;28;45320;-63
2022/08/21 05:43:27;;;;;;;;;4.00;4.00;;;;;19.80;55.18;101243.06;5037940;28;45568;-63
2022/08/21 05:45:52;;;;;;;;;5.67;3.00;;;;;19.84;55.24;101247.06;5038022;28;45285;-62
2022/08/21 05:48:22;;;;;;;;;6.00;4.00;;;;;19.87;55.07;101238.56;5053693;28;45246;-63
2022/08/21 05:50:49;;;;;;;;;3.00;3.00;;;;;19.93;55.05;101242.34;5036890;28;45460;-62
2022/08/21 05:53:17;;;;;;;;;5.67;5.00;;;;;19.97;54.98;101246.34;5037628;28;46743;-63
2022/08/21 05:55:43;;;;;;;;;4.67;4.67;;;;;19.87;54.79;101235.88;5037664;28;45315;-63
2022/08/21 05:58:08;;;;;;;;;5.67;5.67;;;;;19.93;54.84;101234.25;5037866;28;45545;-63
2022/08/21 06:00:34;;;;;;;;;4.33;4.00;;;;;19.98;54.87;101250.69;5038303;28;45486;-64
2022/08/21 06:03:00;;;;;;;;;4.67;4.00;;;;;19.83;54.54;101214.88;5037642;28;46603;-63
2022/08/21 06:05:26;;;;;;;;;6.00;6.00;;;;;20.05;54.72;101248.91;5037926;28;45463;-64
2022/08/21 06:07:52;;;;;;;;;4.00;4.00;;;;;20.04;54.11;101252.66;5036615;28;45364;-63
2022/08/21 06:10:17;;;;;;;;;6.67;4.00;;;;;20.01;54.38;101242.22;5053353;28;45424;-63
2022/08/21 06:12:43;;;;;;;;;5.00;5.00;;;;;20.05;54.58;101251.63;5037692;28;45660;-64
2022/08/21 06:15:09;;;;;;;;;5.00;3.67;;;;;20.00;54.46;101235.16;5037858;28;45301;-63
2022/08/21 06:17:34;;;;;;;;;3.33;3.33;;;;;20.18;54.42;101262.50;5037787;28;45494;-62
2022/08/21 06:19:59;;;;;;;;;4.67;3.33;;;;;20.28;54.31;101265.72;5037771;28;45141;-62
2022/08/21 06:22:25;;;;;;;;;5.67;4.00;;;;;20.24;53.94;101232.06;5052756;28;48296;-61
2022/08/21 06:24:50;;;;;;;;;8.00;4.00;;;;;20.47;53.71;101253.44;5037867;28;45281;-62
2022/08/21 06:27:17;;;;;;;;;6.00;6.00;;;;;20.48;53.36;101246.19;5037697;28;45688;-63
2022/08/21 06:29:44;;;;;;;;;6.33;5.00;;;;;20.45;53.30;101222.28;5037845;28;45896;-62
2022/08/21 06:32:12;;;;;;;;;8.00;5.33;;;;;20.59;52.83;101238.34;5036958;28;46643;-62
2022/08/21 06:34:41;;;;;;;;;4.67;4.00;;;;;20.65;52.79;101234.03;5037254;28;45319;-63
2022/08/21 06:37:06;;;;;;;;;5.00;5.00;;;;;21.02;52.41;101242.75;5037422;28;45395;-63
2022/08/21 06:39:33;;;;;;;;;5.33;5.33;;;;;21.88;50.43;101246.63;5037777;28;45458;-62
2022/08/21 06:41:59;;;;;;;;;11.00;6.67;;;;;22.82;48.38;101251.84;5037458;28;47501;-62
2022/08/21 06:44:25;;;;;;;;;6.67;5.33;;;;;23.36;46.21;101191.75;5037321;28;45509;-63
2022/08/21 06:46:50;;;;;;;;;4.00;3.00;;;;;24.34;44.13;101218.47;5037361;28;45416;-62
2022/08/21 06:49:16;;;;;;;;;4.00;4.00;;;;;25.09;43.41;101218.31;5037474;28;45348;-62
2022/08/21 06:51:41;;;;;;;;;5.67;4.00;;;;;25.69;41.82;101224.66;5036713;28;48629;-63
2022/08/21 06:54:06;;;;;;;;;6.67;6.67;;;;;26.14;40.28;101199.63;5037087;28;45332;-63
2022/08/21 06:56:34;;;;;;;;;4.67;4.67;;;;;26.77;39.42;101215.28;5037051;28;45379;-63
2022/08/21 06:59:00;;;;;;;;;7.00;6.00;;;;;27.22;38.41;101214.59;5037072;28;45521;-63
2022/08/21 07:01:26;;;;;;;;;10.00;6.00;;;;;27.68;37.01;101215.50;5036982;28;45722;-62
2022/08/21 07:03:52;;;;;;;;;5.00;5.00;;;;;28.04;36.47;101189.63;5037222;28;45312;-63
2022/08/21 07:06:18;;;;;;;;;6.67;6.67;;;;;28.70;35.51;101202.38;5037041;28;45704;-64
2022/08/21 07:08:43;;;;;;;;;5.33;4.33;;;;;29.33;34.58;101217.44;5037325;28;45142;-63
2022/08/21 07:11:21;;;;;;;;;4.00;2.00;;;;;29.98;34.09;101212.88;5036725;28;46522;-64
2022/08/21 07:13:47;;;;;;;;;9.00;8.00;;;;;30.44;32.88;101208.59;5037003;28;45394;-64
2022/08/21 07:16:12;;;;;;;;;6.67;6.00;;;;;30.67;31.12;101214.78;5037040;28;45391;-64
2022/08/21 07:18:37;;;;;;;;;7.00;5.00;;;;;30.39;32.77;101207.72;5036996;28;45494;-63
2022/08/21 07:21:05;;;;;;;;;4.33;4.00;;;;;29.97;32.64;101201.06;5036494;28;46299;-62
2022/08/21 07:23:43;;;;;;;;;4.67;4.00;;;;;29.89;32.79;101218.03;5036700;28;45319;-62
2022/08/21 07:26:09;;;;;;;;;5.00;5.00;;;;;29.76;33.58;101210.22;5037013;28;45345;-65
2022/08/21 07:28:34;;;;;;;;;6.00;5.00;;;;;29.84;32.66;101174.13;5036852;28;45579;-64
2022/08/21 07:31:01;;;;;;;;;9.00;8.00;;;;;30.29;32.61;101208.50;5036599;28;46523;-63
2022/08/21 07:33:29;;;;;;;;;6.00;6.00;;;;;30.75;31.74;101193.13;5036522;28;45469;-64
2022/08/21 07:35:55;;;;;;;;;5.33;5.33;;;;;31.59;31.03;101213.19;5036506;28;45158;-64
2022/08/21 07:38:21;;;;;;;;;4.00;4.00;;;;;32.41;29.78;101192.88;5036866;28;45426;-64
2022/08/21 07:40:49;;;;;;;;;7.67;6.33;;;;;32.86;28.41;101125.03;5036453;28;46621;-63
2022/08/21 07:43:16;;;;;;;;;9.00;4.00;;;;;33.75;27.89;101197.50;5037458;28;45477;-64
2022/08/21 07:45:42;;;;;;;;;6.67;6.33;;;;;34.26;26.86;101208.13;5040043;28;45393;-62
2022/08/21 07:48:07;;;;;;;;;10.33;7.00;;;;;34.64;25.93;101200.81;5040422;28;45312;-63
2022/08/21 07:50:32;;;;;;;;;3.67;3.67;;;;;34.95;26.07;101204.06;5039960;28;46931;-63
2022/08/21 07:52:58;;;;;;;;;8.33;6.00;;;;;34.91;25.92;101158.81;5039757;28;45292;-65
2022/08/21 07:55:23;;;;;;;;;6.00;6.00;;;;;35.30;25.68;101206.34;5040305;28;45229;-62
2022/08/21 07:57:49;;;;;;;;;6.33;5.67;;;;;35.03;25.22;101197.84;5039972;28;45313;-63
2022/08/21 08:00:19;;;;;;;;;6.00;6.00;;;;;34.62;26.01;101205.81;5039608;28;46041;-64
2022/08/21 08:02:49;;;;;;;;;6.00;4.33;;;;;33.97;25.82;101142.72;5039967;28;45562;-64
2022/08/21 08:05:15;;;;;;;;;5.33;4.33;;;;;34.07;25.15;101195.03;5039780;28;45272;-64
2022/08/21 08:07:41;;;;;;;;;6.00;5.00;;;;;33.92;25.10;101191.59;5040101;28;45456;-63
2022/08/21 08:10:08;;;;;;;;;5.00;4.67;;;;;33.97;25.35;101197.88;5039460;28;45545;-63
2022/08/21 08:12:35;;;;;;;;;8.33;5.67;;;;;33.86;25.97;101166.00;5039573;28;45466;-65
2022/08/21 08:15:01;;;;;;;;;4.67;4.00;;;;;34.07;25.72;101191.47;5039323;28;45387;-64
2022/08/21 08:17:26;;;;;;;;;4.67;4.67;;;;;33.88;25.40;101204.31;5038173;28;45549;-63
2022/08/21 08:19:52;;;;;;;;;5.33;4.33;;;;;33.53;26.04;101192.41;5039625;28;46874;-63
2022/08/21 08:22:23;;;;;;;;;7.00;4.00;;;;;33.15;26.56;101182.97;5039246;28;45300;-62
2022/08/21 08:24:51;;;;;;;;;7.33;5.00;;;;;32.82;27.00;101168.81;5039611;28;45309;-62
2022/08/21 08:27:17;;;;;;;;;8.67;6.67;;;;;31.30;26.93;100984.84;5039460;28;45363;-63
2022/08/21 08:29:43;;;;;;;;;6.33;6.00;;;;;32.26;27.27;101193.75;5039224;28;46649;-64
2022/08/21 08:32:08;;;;;;;;;6.00;5.00;;;;;31.91;27.23;101185.50;5039448;28;45391;-63
2022/08/21 08:34:35;;;;;;;;;4.00;4.00;;;;;31.40;28.09;101178.00;5039485;28;45540;-63
2022/08/21 08:37:01;;;;;;;;;5.00;5.00;;;;;31.27;28.63;101180.47;5039410;28;45507;-63
2022/08/21 08:39:27;;;;;;;;;4.33;4.33;;;;;31.15;28.57;101192.47;5039122;28;45480;-64
2022/08/21 08:42:12;;;;;;;;;7.00;5.33;;;;;30.97;29.00;101181.97;5038946;28;45297;-63
2022/08/21 08:44:37;;;;;;;;;8.67;4.33;;;;;30.83;29.50;101180.81;5037215;28;45471;-64
2022/08/21 08:47:04;;;;;;;;;4.67;4.67;;;;;30.14;29.29;101117.88;5039034;28;45313;-65
2022/08/21 08:49:54;;;;;;;;;4.67;4.67;;;;;30.11;29.98;101192.44;5038551;28;46584;-64
2022/08/21 08:52:26;;;;;;;;;6.33;6.00;;;;;29.52;30.87;101178.75;5058997;28;45484;-64
2022/08/21 08:55:02;;;;;;;;;7.33;6.00;;;;;29.34;31.26;101177.16;5044515;28;45243;-64
2022/08/21 08:57:28;;;;;;;;;8.50;6.00;;;;;29.60;31.19;101184.56;5037381;28;45481;-65
2022/08/21 08:59:57;;;;;;;;;6.00;6.00;;;;;29.67;30.53;101179.72;5038543;28;45282;-63
2022/08/21 09:02:23;;;;;;;;;4.33;4.00;;;;;29.49;30.83;101174.63;5038790;28;45251;-63
2022/08/21 09:04:50;;;;;;;;;6.67;5.00;;;;;29.37;31.14;101172.00;5038946;28;45227;-63
2022/08/21 09:07:22;;;;;;;;;4.00;4.00;;;;;29.45;30.80;101167.16;5022934;28;45498;-63
2022/08/21 09:09:59;;;;;;;;;3.33;2.33;;;;;29.75;30.03;101169.38;5018702;28;46251;-64
2022/08/21 09:12:43;;;;;;;;;6.67;5.00;;;;;30.09;29.94;101164.47;5018488;28;45421;-63
2022/08/21 09:15:38;;;;;;;;;3.00;3.00;;;;;30.63;28.99;101165.06;5018733;28;45242;-63
2022/08/21 09:18:16;;;;;;;;;3.67;3.33;;;;;30.82;28.67;101158.00;5018223;28;45515;-63
2022/08/21 09:21:15;;;;;;;;;5.67;5.00;;;;;30.83;28.43;101147.88;5018623;28;45885;-63
2022/08/21 09:24:14;;;;;;;;;5.00;5.00;;;;;31.14;29.01;101152.38;5018776;28;45525;-64
2022/08/21 09:26:59;;;;;;;;;4.33;3.00;;;;;31.38;27.49;101113.41;5018533;28;45214;-63
2022/08/21 09:29:29;;;;;;;;;9.00;5.00;;;;;31.93;27.25;101142.03;5018132;28;45559;-63
2022/08/21 09:31:55;;;;;;;;;6.00;4.67;;;;;32.23;26.94;101135.63;5017942;28;47476;-63
2022/08/21 09:34:29;;;;;;;;;3.67;3.67;;;;;32.42;26.70;101133.16;5033357;28;45259;-64
2022/08/21 09:36:56;;;;;;;;;5.00;5.00;;;;;32.13;26.33;101105.41;5018036;28;45206;-64
2022/08/21 09:39:26;;;;;;;;;4.67;3.67;;;;;32.03;26.92;101150.25;5018297;28;45194;-64
2022/08/21 09:41:59;;;;;;;;;5.00;4.00;;;;;31.98;26.79;101142.03;5017897;28;46497;-64
2022/08/21 09:44:31;;;;;;;;;5.00;5.00;;;;;32.19;26.90;101138.13;5018203;28;45502;-64
2022/08/21 09:46:57;;;;;;;;;4.00;4.00;;;;;32.52;26.85;101144.13;5018437;28;45471;-64
2022/08/21 09:49:29;;;;;;;;;3.33;3.33;;;;;33.11;25.69;101141.41;5016770;28;45446;-62
2022/08/21 09:51:57;;;;;;;;;5.00;4.67;;;;;33.66;24.96;101153.19;5017882;28;45824;-62
2022/08/21 09:54:29;;;;;;;;;4.00;4.00;;;;;34.44;24.13;101138.34;5017999;28;45380;-68
2022/08/21 09:59:45;;;;;;;;;4.00;4.00;;;;;34.66;23.93;101146.13;5021599;28;45214;-62
2022/08/21 10:02:22;;;;;;;;;5.33;5.33;;;;;34.91;23.01;101140.28;5033369;28;47908;-63
2022/08/21 10:04:53;;;;;;;;;5.00;5.00;;;;;35.24;22.94;101116.31;5017814;28;45367;-64
2022/08/21 10:07:21;;;;;;;;;6.00;4.00;;;;;35.52;22.39;101135.81;5017595;28;45222;-65
2022/08/21 10:10:00;;;;;;;;;6.00;3.00;;;;;35.26;22.72;101105.78;5033616;28;45581;-62
2022/08/21 10:12:43;;;;;;;;;8.33;4.33;;;;;34.77;23.28;101098.72;5018226;28;46133;-63
2022/08/21 10:15:40;;;;;;;;;6.33;6.33;;;;;34.76;24.12;101105.38;5017632;28;45321;-63
2022/08/21 10:18:21;;;;;;;;;4.67;3.67;;;;;34.62;23.52;101112.72;5024281;28;45142;-62
2022/08/21 10:20:52;;;;;;;;;6.67;5.00;;;;;34.30;24.40;101107.03;5037816;28;45303;-69
2022/08/21 10:23:46;;;;;;;;;4.33;3.00;;;;;33.31;24.96;101110.13;5020304;28;46499;-63
2022/08/21 10:26:25;;;;;;;;;5.00;4.00;;;;;32.58;26.27;101101.72;5024576;28;45403;-62
2022/08/21 10:29:18;;;;;;;;;4.00;4.00;;;;;31.45;27.67;101084.59;5017841;28;45389;-63
2022/08/21 10:31:57;;;;;;;;;4.00;3.67;;;;;30.96;28.33;101094.38;5017464;28;45428;-62
2022/08/21 10:34:36;;;;;;;;;6.33;5.00;;;;;30.41;29.09;101085.63;5015481;28;45445;-63
2022/08/21 10:37:12;;;;;;;;;3.00;3.00;;;;;30.02;30.15;101081.56;5017262;28;45357;-63
2022/08/21 10:39:50;;;;;;;;;6.00;4.67;;;;;29.62;30.62;101099.38;5017271;28;45186;-62
2022/08/21 10:42:41;;;;;;;;;4.00;4.00;;;;;28.76;30.60;100982.44;5017663;28;45341;-62
2022/08/21 10:45:13;;;;;;;;;2.33;2.33;;;;;29.21;30.51;101084.47;5016977;28;46999;-62
2022/08/21 10:47:48;;;;;;;;;5.00;3.33;;;;;28.95;31.05;101083.38;5017151;28;45407;-65
2022/08/21 10:50:19;;;;;;;;;4.00;4.00;;;;;28.80;31.72;101081.28;5016994;28;45284;-64
2022/08/21 10:52:47;;;;;;;;;5.67;5.00;;;;;28.67;32.50;101077.03;5017464;28;45511;-65
2022/08/21 10:55:20;;;;;;;;;6.00;5.00;;;;;28.61;32.72;101069.84;5016418;28;45878;-63
2022/08/21 10:58:04;;;;;;;;;6.00;5.00;;;;;28.64;32.81;101063.88;5023783;28;45446;-70
2022/08/21 11:00:47;;;;;;;;;5.67;4.33;;;;;28.63;33.05;101059.50;5035930;28;45504;-65
2022/08/21 11:03:34;;;;;;;;;3.33;3.00;;;;;28.71;32.52;101048.09;5037369;28;45335;-64
2022/08/21 11:06:08;;;;;;;;;3.00;3.00;;;;;28.71;31.91;101074.63;5035761;28;48900;-63
2022/08/21 11:08:45;;;;;;;;;4.00;4.00;;;;;28.78;32.25;101051.44;5030919;28;45274;-64
2022/08/21 11:11:18;;;;;;;;;4.33;4.00;;;;;28.90;32.47;101054.06;5017137;28;45400;-64
2022/08/21 11:13:53;;;;;;;;;6.00;4.00;;;;;28.40;31.68;100969.47;5017150;28;45399;-62
2022/08/21 11:16:42;;;;;;;;;4.00;4.00;;;;;29.02;31.19;101065.66;5043549;28;47861;-64
2022/08/21 11:19:10;;;;;;;;;13.00;12.00;;;;;29.13;31.67;101061.13;5034142;28;45358;-64
2022/08/21 11:21:44;;;;;;;;;4.00;4.00;;;;;29.13;30.43;101074.00;5036890;28;45324;-64
2022/08/21 11:24:27;;;;;;;;;3.33;3.33;;;;;28.12;30.40;100948.63;5036526;28;45516;-63
2022/08/21 11:27:14;;;;;;;;;4.67;4.00;;;;;28.26;30.84;100998.31;5034897;28;46033;-62
2022/08/21 11:29:46;;;;;;;;;6.67;5.00;;;;;28.68;31.79;101086.91;5036399;28;45488;-65
2022/08/21 11:32:41;;;;;;;;;6.00;4.67;;;;;28.08;32.01;100992.06;5036809;28;45229;-63
2022/08/21 11:35:09;;;;;;;;;3.33;3.00;;;;;28.83;32.57;101088.13;5034050;28;45313;-64